ARG1009 YMML-SACO
Flight info
| Callsign | ARG1009 |
|---|---|
| Flight time | 5h 0m |
| Altitude | 35000 |
| Route | CORRS Y81 GEMAC N759 AA G599 IGETO/N0492F370 G599 TEKOT/N0487F390 G599 TAF UL348 SAPOK/N0481F410 UL348 IPA UT316 VTN UT101 TBN UN527 GUVOL UZ128 PAMAL |
| Aircraft | A359/H-SDE2E3GHIJ3J4J5LM1ORWXY/LB1D1 |
Departure
| Time | 2026-05-08 16:59 |
|---|---|
| Airport | Melbourne Airport (YMML) |
Arrival
| Time | 2026-05-08 21:59 |
|---|---|
| Airport | Ingeniero Aeronáutico Ambrosio L.V. Taravella International Airport (SACO) |
| Time | Latitude | Longitude | Altitude | Speed | Heading |
|---|---|---|---|---|---|
| 2026-05-08 16:34 | -37.66760 | 144.85048 | 405 ft | 0 kts | 262° |
| 2026-05-08 16:46 | -37.66760 | 144.85049 | 405 ft | 2 kts | 265° |
| 2026-05-08 16:47 | -37.66760 | 144.85071 | 403 ft | 3 kts | 299° |
| 2026-05-08 16:47 | -37.66771 | 144.85084 | 400 ft | 3 kts | 349° |
| 2026-05-08 16:47 | -37.66773 | 144.85085 | 401 ft | 0 kts | 351° |
| 2026-05-08 16:50 | -37.66763 | 144.85083 | 399 ft | 5 kts | 352° |
| 2026-05-08 16:50 | -37.66702 | 144.85081 | 406 ft | 11 kts | 357° |
| 2026-05-08 16:50 | -37.66616 | 144.85068 | 407 ft | 13 kts | 353° |
| 2026-05-08 16:51 | -37.66527 | 144.85053 | 406 ft | 13 kts | 351° |
| 2026-05-08 16:51 | -37.66487 | 144.85037 | 408 ft | 11 kts | 337° |
| 2026-05-08 16:51 | -37.66429 | 144.84989 | 411 ft | 9 kts | 323° |
| 2026-05-08 16:51 | -37.66431 | 144.84943 | 406 ft | 5 kts | 234° |
| 2026-05-08 16:52 | -37.66456 | 144.84879 | 415 ft | 11 kts | 253° |
| 2026-05-08 16:52 | -37.66430 | 144.84781 | 411 ft | 14 kts | 323° |
| 2026-05-08 16:52 | -37.66380 | 144.84665 | 411 ft | 17 kts | 276° |
| 2026-05-08 16:52 | -37.66371 | 144.84497 | 413 ft | 21 kts | 274° |
| 2026-05-08 16:53 | -37.66351 | 144.84162 | 416 ft | 23 kts | 274° |
| 2026-05-08 16:53 | -37.66354 | 144.83964 | 413 ft | 22 kts | 245° |
| 2026-05-08 16:53 | -37.66483 | 144.83926 | 408 ft | 22 kts | 172° |
| 2026-05-08 16:54 | -37.66637 | 144.83956 | 403 ft | 23 kts | 172° |
| 2026-05-08 16:54 | -37.66806 | 144.83991 | 397 ft | 26 kts | 175° |
| 2026-05-08 16:54 | -37.66966 | 144.84016 | 392 ft | 27 kts | 172° |
| 2026-05-08 16:54 | -37.67000 | 144.84022 | 391 ft | 27 kts | 172° |
| 2026-05-08 16:55 | -37.67194 | 144.84059 | 385 ft | 29 kts | 171° |
| 2026-05-08 16:55 | -37.67393 | 144.84097 | 380 ft | 30 kts | 172° |
| 2026-05-08 16:55 | -37.67502 | 144.84225 | 379 ft | 19 kts | 104° |
| 2026-05-08 16:55 | -37.67589 | 144.84336 | 379 ft | 19 kts | 164° |
| 2026-05-08 16:56 | -37.67723 | 144.84366 | 378 ft | 21 kts | 172° |
| 2026-05-08 16:56 | -37.67877 | 144.84393 | 369 ft | 24 kts | 171° |
| 2026-05-08 16:56 | -37.68048 | 144.84427 | 368 ft | 26 kts | 171° |
| 2026-05-08 16:56 | -37.68230 | 144.84460 | 365 ft | 27 kts | 171° |
| 2026-05-08 16:57 | -37.68409 | 144.84418 | 357 ft | 27 kts | 211° |
| 2026-05-08 16:57 | -37.68584 | 144.84368 | 352 ft | 17 kts | 207° |
| 2026-05-08 16:57 | -37.68599 | 144.84266 | 355 ft | 12 kts | 301° |
| 2026-05-08 16:57 | -37.68567 | 144.84184 | 357 ft | 10 kts | 287° |
| 2026-05-08 16:58 | -37.68537 | 144.84108 | 360 ft | 10 kts | 316° |
| 2026-05-08 16:58 | -37.68418 | 144.84068 | 358 ft | 40 kts | 351° |
| 2026-05-08 16:58 | -37.67894 | 144.83973 | 363 ft | 110 kts | 351° |
| 2026-05-08 16:58 | -37.66943 | 144.83797 | 392 ft | 168 kts | 353° |
| 2026-05-08 16:59 | -37.65781 | 144.83635 | 1124 ft | 159 kts | 351° |
| 2026-05-08 16:59 | -37.64634 | 144.83410 | 1692 ft | 179 kts | 349° |
| 2026-05-08 16:59 | -37.63331 | 144.83130 | 1932 ft | 198 kts | 349° |
| 2026-05-08 16:59 | -37.61912 | 144.82839 | 2109 ft | 215 kts | 350° |
| 2026-05-08 17:00 | -37.60378 | 144.82539 | 2313 ft | 230 kts | 351° |
| 2026-05-08 17:00 | -37.58732 | 144.82568 | 2486 ft | 247 kts | 16° |
| 2026-05-08 17:00 | -37.57109 | 144.83434 | 2761 ft | 260 kts | 30° |
| 2026-05-08 17:00 | -37.55664 | 144.84812 | 3198 ft | 262 kts | 51° |
| 2026-05-08 17:01 | -37.54811 | 144.86820 | 3582 ft | 262 kts | 83° |
| 2026-05-08 17:01 | -37.54686 | 144.89089 | 4056 ft | 260 kts | 97° |
| 2026-05-08 17:01 | -37.54876 | 144.91321 | 4582 ft | 259 kts | 104° |
| 2026-05-08 17:01 | -37.55221 | 144.93585 | 5123 ft | 262 kts | 106° |
| 2026-05-08 17:02 | -37.55607 | 144.95809 | 5638 ft | 265 kts | 106° |
| 2026-05-08 17:02 | -37.55997 | 144.98094 | 6177 ft | 267 kts | 105° |
| 2026-05-08 17:02 | -37.56365 | 145.00391 | 6771 ft | 269 kts | 104° |
| 2026-05-08 17:02 | -37.56713 | 145.02706 | 7286 ft | 272 kts | 104° |
| 2026-05-08 17:03 | -37.57051 | 145.05082 | 7845 ft | 274 kts | 103° |
| 2026-05-08 17:03 | -37.57374 | 145.07460 | 8428 ft | 275 kts | 103° |
| 2026-05-08 17:03 | -37.57694 | 145.09834 | 9020 ft | 276 kts | 103° |
| 2026-05-08 17:03 | -37.58016 | 145.12228 | 9613 ft | 277 kts | 103° |
| 2026-05-08 17:04 | -37.58344 | 145.14640 | 10195 ft | 279 kts | 103° |
| 2026-05-08 17:04 | -37.58679 | 145.17068 | 10607 ft | 286 kts | 102° |
| 2026-05-08 17:04 | -37.59025 | 145.19597 | 10839 ft | 299 kts | 102° |
| 2026-05-08 17:04 | -37.59385 | 145.22247 | 11067 ft | 313 kts | 102° |
| 2026-05-08 17:05 | -37.59756 | 145.24994 | 11298 ft | 325 kts | 102° |
| 2026-05-08 17:05 | -37.60144 | 145.27869 | 11542 ft | 338 kts | 102° |
| 2026-05-08 17:05 | -37.60539 | 145.30805 | 11764 ft | 350 kts | 102° |
| 2026-05-08 17:05 | -37.60950 | 145.33875 | 11998 ft | 361 kts | 102° |
| 2026-05-08 17:06 | -37.61374 | 145.37045 | 12208 ft | 372 kts | 101° |
| 2026-05-08 17:06 | -37.61810 | 145.40306 | 12440 ft | 381 kts | 101° |
| 2026-05-08 17:06 | -37.62254 | 145.43635 | 12810 ft | 386 kts | 101° |
| 2026-05-08 17:06 | -37.62698 | 145.46983 | 13234 ft | 389 kts | 101° |
| 2026-05-08 17:07 | -37.63147 | 145.50369 | 13646 ft | 393 kts | 101° |
| 2026-05-08 17:07 | -37.63598 | 145.53779 | 14079 ft | 395 kts | 101° |
| 2026-05-08 17:07 | -37.64052 | 145.57214 | 14449 ft | 398 kts | 101° |
| 2026-05-08 17:07 | -37.64502 | 145.60623 | 14807 ft | 401 kts | 101° |
| 2026-05-08 17:08 | -37.64967 | 145.64150 | 15145 ft | 404 kts | 101° |
| 2026-05-08 17:08 | -37.65423 | 145.67610 | 15497 ft | 406 kts | 101° |
| 2026-05-08 17:08 | -37.65891 | 145.71176 | 15889 ft | 408 kts | 101° |
| 2026-05-08 17:08 | -37.66348 | 145.74675 | 16244 ft | 411 kts | 101° |
| 2026-05-08 17:09 | -37.66814 | 145.78248 | 16593 ft | 414 kts | 101° |
| 2026-05-08 17:09 | -37.67283 | 145.81844 | 16961 ft | 417 kts | 101° |
| 2026-05-08 17:09 | -37.67755 | 145.85472 | 17329 ft | 421 kts | 101° |
| 2026-05-08 17:09 | -37.68227 | 145.89127 | 17729 ft | 422 kts | 101° |
| 2026-05-08 17:10 | -37.68702 | 145.92815 | 18110 ft | 425 kts | 101° |
| 2026-05-08 17:10 | -37.69177 | 145.96505 | 18512 ft | 428 kts | 101° |
| 2026-05-08 17:10 | -37.69654 | 146.00224 | 18864 ft | 430 kts | 101° |
| 2026-05-08 17:10 | -37.70133 | 146.03963 | 19215 ft | 432 kts | 101° |
| 2026-05-08 17:11 | -37.70613 | 146.07720 | 19545 ft | 436 kts | 101° |
| 2026-05-08 17:11 | -37.71093 | 146.11515 | 19884 ft | 438 kts | 101° |
| 2026-05-08 17:11 | -37.71571 | 146.15273 | 20248 ft | 440 kts | 101° |
| 2026-05-08 17:11 | -37.72065 | 146.19142 | 20611 ft | 442 kts | 101° |
| 2026-05-08 17:12 | -37.72548 | 146.22941 | 20968 ft | 444 kts | 101° |
| 2026-05-08 17:12 | -37.73035 | 146.26806 | 21329 ft | 447 kts | 101° |
| 2026-05-08 17:12 | -37.73526 | 146.30703 | 21697 ft | 449 kts | 101° |
| 2026-05-08 17:12 | -37.74018 | 146.34616 | 22039 ft | 452 kts | 101° |
| 2026-05-08 17:13 | -37.74516 | 146.38548 | 22374 ft | 455 kts | 101° |
| 2026-05-08 17:13 | -37.75015 | 146.42512 | 22728 ft | 458 kts | 101° |
| 2026-05-08 17:13 | -37.75511 | 146.46493 | 23111 ft | 460 kts | 101° |
| 2026-05-08 17:13 | -37.76004 | 146.50499 | 23494 ft | 462 kts | 101° |
| 2026-05-08 17:14 | -37.76500 | 146.54535 | 23843 ft | 465 kts | 101° |
| 2026-05-08 17:14 | -37.76999 | 146.58604 | 24174 ft | 468 kts | 101° |
| 2026-05-08 17:14 | -37.77497 | 146.62667 | 24535 ft | 469 kts | 101° |
| 2026-05-08 17:14 | -37.77997 | 146.66751 | 24894 ft | 470 kts | 101° |
| 2026-05-08 17:15 | -37.78496 | 146.70839 | 25253 ft | 471 kts | 101° |
| 2026-05-08 17:15 | -37.78997 | 146.74936 | 25598 ft | 472 kts | 101° |
| 2026-05-08 17:15 | -37.79492 | 146.78999 | 25935 ft | 474 kts | 101° |
| 2026-05-08 17:15 | -37.79993 | 146.83126 | 26278 ft | 475 kts | 101° |
| 2026-05-08 17:16 | -37.80491 | 146.87253 | 26610 ft | 477 kts | 101° |
| 2026-05-08 17:16 | -37.80992 | 146.91421 | 26910 ft | 479 kts | 101° |
| 2026-05-08 17:16 | -37.81493 | 146.95596 | 27244 ft | 480 kts | 101° |
| 2026-05-08 17:16 | -37.81993 | 146.99774 | 27576 ft | 481 kts | 101° |
| 2026-05-08 17:17 | -37.82492 | 147.03962 | 27881 ft | 483 kts | 101° |
| 2026-05-08 17:17 | -37.82993 | 147.08168 | 28171 ft | 484 kts | 101° |
| 2026-05-08 17:17 | -37.83493 | 147.12387 | 28454 ft | 486 kts | 101° |
| 2026-05-08 17:17 | -37.83994 | 147.16624 | 28706 ft | 488 kts | 101° |
| 2026-05-08 17:18 | -37.84496 | 147.20881 | 28978 ft | 489 kts | 101° |
| 2026-05-08 17:18 | -37.84995 | 147.25134 | 29311 ft | 489 kts | 101° |
| 2026-05-08 17:18 | -37.85491 | 147.29385 | 29757 ft | 486 kts | 101° |
| 2026-05-08 17:18 | -37.85983 | 147.33612 | 30183 ft | 484 kts | 102° |
| 2026-05-08 17:19 | -37.86471 | 147.37815 | 30555 ft | 482 kts | 102° |
| 2026-05-08 17:19 | -37.86958 | 147.42013 | 30852 ft | 482 kts | 102° |
| 2026-05-08 17:19 | -37.87443 | 147.46203 | 31124 ft | 481 kts | 102° |
| 2026-05-08 17:19 | -37.87925 | 147.50387 | 31421 ft | 479 kts | 102° |
| 2026-05-08 17:20 | -37.88404 | 147.54559 | 31713 ft | 478 kts | 102° |
| 2026-05-08 17:20 | -37.88880 | 147.58721 | 31990 ft | 476 kts | 102° |
| 2026-05-08 17:20 | -37.89348 | 147.62816 | 32248 ft | 475 kts | 102° |
| 2026-05-08 17:20 | -37.89818 | 147.66953 | 32508 ft | 474 kts | 102° |
| 2026-05-08 17:21 | -37.90287 | 147.71080 | 32729 ft | 474 kts | 102° |
| 2026-05-08 17:21 | -37.90753 | 147.75203 | 32948 ft | 473 kts | 102° |
| 2026-05-08 17:21 | -37.91218 | 147.79328 | 33187 ft | 472 kts | 102° |
| 2026-05-08 17:21 | -37.91679 | 147.83438 | 33423 ft | 471 kts | 102° |
| 2026-05-08 17:22 | -37.92138 | 147.87537 | 33656 ft | 470 kts | 102° |
| 2026-05-08 17:22 | -37.92592 | 147.91614 | 33965 ft | 466 kts | 102° |
| 2026-05-08 17:22 | -37.93044 | 147.95681 | 34216 ft | 465 kts | 102° |
| 2026-05-08 17:22 | -37.93494 | 147.99740 | 34274 ft | 466 kts | 102° |
| 2026-05-08 17:23 | -37.94394 | 148.07884 | 34270 ft | 466 kts | 102° |
| 2026-05-08 17:23 | -37.95286 | 148.16014 | 34266 ft | 466 kts | 102° |
| 2026-05-08 17:24 | -37.96172 | 148.24145 | 34269 ft | 466 kts | 102° |
| 2026-05-08 17:24 | -37.97054 | 148.32295 | 34264 ft | 467 kts | 102° |
| 2026-05-08 17:25 | -37.97931 | 148.40456 | 34260 ft | 467 kts | 102° |
| 2026-05-08 17:25 | -37.98797 | 148.48572 | 34274 ft | 467 kts | 102° |
| 2026-05-08 17:26 | -37.99664 | 148.56748 | 34255 ft | 468 kts | 102° |
| 2026-05-08 17:26 | -38.00527 | 148.64934 | 34252 ft | 468 kts | 102° |
| 2026-05-08 17:27 | -38.01384 | 148.73129 | 34249 ft | 468 kts | 102° |
| 2026-05-08 17:27 | -38.02235 | 148.81323 | 34245 ft | 469 kts | 102° |
| 2026-05-08 17:28 | -38.03081 | 148.89520 | 34242 ft | 469 kts | 102° |
| 2026-05-08 17:28 | -38.03921 | 148.97722 | 34233 ft | 468 kts | 102° |
| 2026-05-08 17:29 | -38.04754 | 149.05914 | 34234 ft | 468 kts | 102° |
| 2026-05-08 17:29 | -38.05585 | 149.14129 | 34236 ft | 471 kts | 102° |
| 2026-05-08 17:30 | -38.06412 | 149.22369 | 34238 ft | 471 kts | 102° |
| 2026-05-08 17:30 | -38.07234 | 149.30633 | 34229 ft | 471 kts | 102° |
| 2026-05-08 17:31 | -38.09512 | 149.53826 | 34218 ft | 471 kts | 102° |
| 2026-05-08 17:31 | -38.12674 | 149.86854 | 34202 ft | 472 kts | 102° |
| 2026-05-08 17:32 | -38.15915 | 150.19936 | 34199 ft | 467 kts | 108° |
| 2026-05-08 17:32 | -38.22027 | 150.33987 | 34191 ft | 452 kts | 134° |
| 2026-05-08 17:32 | -38.30517 | 150.45763 | 34184 ft | 452 kts | 136° |
| 2026-05-08 17:33 | -38.47384 | 150.69574 | 34178 ft | 453 kts | 135° |
| 2026-05-08 17:33 | -38.64115 | 150.93464 | 34176 ft | 453 kts | 135° |
| 2026-05-08 17:34 | -38.80901 | 151.17616 | 34188 ft | 453 kts | 135° |
| 2026-05-08 17:34 | -38.89230 | 151.29668 | 34788 ft | 450 kts | 135° |
| 2026-05-08 17:34 | -38.97524 | 151.41716 | 35336 ft | 448 kts | 135° |
| 2026-05-08 17:35 | -39.05774 | 151.53746 | 35768 ft | 446 kts | 135° |
| 2026-05-08 17:35 | -39.13949 | 151.65712 | 36182 ft | 444 kts | 135° |
| 2026-05-08 17:35 | -39.22069 | 151.77643 | 36522 ft | 443 kts | 135° |
| 2026-05-08 17:35 | -39.30221 | 151.89665 | 36785 ft | 442 kts | 135° |
| 2026-05-08 17:36 | -39.38263 | 152.01575 | 37124 ft | 440 kts | 135° |
| 2026-05-08 17:36 | -39.46285 | 152.13493 | 37125 ft | 443 kts | 135° |
| 2026-05-08 17:36 | -39.62461 | 152.37675 | 37112 ft | 445 kts | 135° |
| 2026-05-08 17:37 | -39.78622 | 152.62025 | 37114 ft | 444 kts | 135° |
| 2026-05-08 17:37 | -39.94754 | 152.86519 | 37091 ft | 444 kts | 135° |
| 2026-05-08 17:38 | -40.10759 | 153.11015 | 37072 ft | 443 kts | 135° |
| 2026-05-08 17:38 | -40.26718 | 153.35635 | 37066 ft | 444 kts | 135° |
| 2026-05-08 17:39 | -40.42616 | 153.60360 | 37056 ft | 443 kts | 135° |
| 2026-05-08 17:39 | -40.58439 | 153.85165 | 37047 ft | 443 kts | 135° |
| 2026-05-08 17:40 | -40.74166 | 154.10019 | 37033 ft | 443 kts | 135° |
| 2026-05-08 17:40 | -40.89897 | 154.35083 | 37026 ft | 444 kts | 134° |
| 2026-05-08 17:41 | -41.05588 | 154.60290 | 37015 ft | 443 kts | 134° |
| 2026-05-08 17:41 | -41.21204 | 154.85587 | 36999 ft | 444 kts | 134° |
| 2026-05-08 17:42 | -41.34183 | 155.06771 | 36989 ft | 444 kts | 134° |
| 2026-05-08 17:42 | -41.49723 | 155.32333 | 36979 ft | 444 kts | 134° |
| 2026-05-08 17:43 | -41.65239 | 155.58070 | 36967 ft | 445 kts | 134° |
| 2026-05-08 17:43 | -41.80703 | 155.83943 | 36956 ft | 445 kts | 134° |
| 2026-05-08 17:44 | -41.96135 | 156.09985 | 36955 ft | 445 kts | 134° |
| 2026-05-08 17:44 | -42.11482 | 156.36110 | 36927 ft | 445 kts | 134° |
| 2026-05-08 17:45 | -42.26808 | 156.62425 | 36916 ft | 445 kts | 134° |
| 2026-05-08 17:45 | -42.41959 | 156.88671 | 36897 ft | 445 kts | 134° |
| 2026-05-08 17:46 | -42.57144 | 157.15209 | 36887 ft | 445 kts | 133° |
| 2026-05-08 17:46 | -42.72250 | 157.41845 | 36867 ft | 445 kts | 133° |
| 2026-05-08 17:47 | -42.87336 | 157.68685 | 36856 ft | 446 kts | 133° |
| 2026-05-08 17:47 | -43.02346 | 157.95635 | 36835 ft | 445 kts | 133° |
| 2026-05-08 17:48 | -43.17319 | 158.22764 | 36835 ft | 447 kts | 133° |
| 2026-05-08 17:48 | -43.32263 | 158.50090 | 36809 ft | 447 kts | 133° |
| 2026-05-08 17:49 | -43.47092 | 158.77458 | 36803 ft | 449 kts | 133° |
| 2026-05-08 17:49 | -43.61963 | 159.05163 | 36782 ft | 449 kts | 133° |
| 2026-05-08 17:50 | -43.76799 | 159.33063 | 36768 ft | 451 kts | 133° |
| 2026-05-08 17:50 | -43.91605 | 159.61178 | 36758 ft | 451 kts | 132° |
| 2026-05-08 17:51 | -44.06374 | 159.89493 | 36741 ft | 453 kts | 132° |
| 2026-05-08 17:51 | -44.21122 | 160.18044 | 36728 ft | 455 kts | 131° |
| 2026-05-08 17:52 | -44.35841 | 160.46824 | 36713 ft | 456 kts | 131° |
| 2026-05-08 17:53 | -44.57877 | 160.90450 | 36688 ft | 460 kts | 131° |
| 2026-05-08 17:53 | -44.72610 | 161.19988 | 36677 ft | 462 kts | 131° |
| 2026-05-08 17:54 | -44.87275 | 161.49698 | 36659 ft | 463 kts | 131° |
| 2026-05-08 17:54 | -45.01980 | 161.79795 | 36641 ft | 466 kts | 130° |
| 2026-05-08 17:55 | -45.16705 | 162.10255 | 36627 ft | 469 kts | 130° |
| 2026-05-08 17:55 | -45.31417 | 162.41017 | 36614 ft | 472 kts | 130° |
| 2026-05-08 17:56 | -45.46110 | 162.72076 | 36600 ft | 473 kts | 129° |
| 2026-05-08 17:56 | -45.60766 | 163.03400 | 36580 ft | 475 kts | 129° |
| 2026-05-08 17:57 | -45.75399 | 163.35024 | 36560 ft | 475 kts | 129° |
| 2026-05-08 17:57 | -45.89922 | 163.66760 | 36546 ft | 479 kts | 129° |
| 2026-05-08 17:58 | -46.04438 | 163.98852 | 36528 ft | 479 kts | 128° |
| 2026-05-08 17:58 | -46.19018 | 164.31450 | 36516 ft | 484 kts | 128° |
| 2026-05-08 17:59 | -46.33495 | 164.64207 | 36500 ft | 484 kts | 128° |
| 2026-05-08 17:59 | -46.47956 | 164.97303 | 36482 ft | 487 kts | 128° |
| 2026-05-08 18:00 | -46.62364 | 165.30689 | 36469 ft | 490 kts | 127° |
| 2026-05-08 18:00 | -46.84038 | 165.81672 | 36431 ft | 495 kts | 127° |
| 2026-05-08 18:01 | -46.98439 | 166.16078 | 36414 ft | 499 kts | 127° |
| 2026-05-08 18:01 | -47.12882 | 166.51023 | 36401 ft | 501 kts | 126° |
| 2026-05-08 18:02 | -47.24855 | 166.80335 | 36376 ft | 505 kts | 126° |
| 2026-05-08 18:02 | -47.41737 | 167.22202 | 36354 ft | 510 kts | 126° |
| 2026-05-08 18:03 | -47.56145 | 167.58457 | 36331 ft | 514 kts | 125° |
| 2026-05-08 18:03 | -47.70568 | 167.95252 | 36306 ft | 516 kts | 125° |
| 2026-05-08 18:04 | -47.84864 | 168.32224 | 36305 ft | 518 kts | 124° |
| 2026-05-08 18:04 | -47.99221 | 168.69884 | 36279 ft | 522 kts | 123° |
| 2026-05-08 18:05 | -48.13371 | 169.07514 | 36277 ft | 521 kts | 122° |
| 2026-05-08 18:05 | -48.27572 | 169.45826 | 36239 ft | 526 kts | 121° |
| 2026-05-08 18:06 | -48.41684 | 169.84483 | 36215 ft | 528 kts | 121° |
| 2026-05-08 18:06 | -48.55728 | 170.23514 | 36208 ft | 530 kts | 120° |
| 2026-05-08 18:07 | -48.69683 | 170.62881 | 36214 ft | 534 kts | 120° |
| 2026-05-08 18:07 | -48.83608 | 171.02775 | 36189 ft | 536 kts | 119° |
| 2026-05-08 18:08 | -48.97443 | 171.43011 | 36178 ft | 539 kts | 118° |
| 2026-05-08 18:08 | -49.11093 | 171.83374 | 36166 ft | 539 kts | 117° |
| 2026-05-08 18:09 | -49.24719 | 172.24298 | 36152 ft | 542 kts | 117° |
| 2026-05-08 18:09 | -49.38322 | 172.65821 | 36134 ft | 545 kts | 116° |
| 2026-05-08 18:10 | -49.51745 | 173.07470 | 36115 ft | 543 kts | 114° |
| 2026-05-08 18:10 | -49.65043 | 173.49467 | 36094 ft | 543 kts | 113° |
| 2026-05-08 18:11 | -49.78119 | 173.91456 | 36071 ft | 543 kts | 112° |
| 2026-05-08 18:11 | -49.91104 | 174.33829 | 36052 ft | 547 kts | 111° |
| 2026-05-08 18:12 | -50.03898 | 174.76376 | 36021 ft | 547 kts | 110° |
| 2026-05-08 18:12 | -50.16624 | 175.19421 | 36004 ft | 548 kts | 109° |
| 2026-05-08 18:13 | -50.29214 | 175.62779 | 35986 ft | 550 kts | 109° |
| 2026-05-08 18:13 | -50.41692 | 176.06541 | 35970 ft | 552 kts | 109° |
| 2026-05-08 18:14 | -50.54083 | 176.50814 | 35950 ft | 552 kts | 108° |
| 2026-05-08 18:14 | -50.66280 | 176.95236 | 35945 ft | 555 kts | 107° |
| 2026-05-08 18:15 | -50.78278 | 177.39772 | 35947 ft | 555 kts | 107° |
| 2026-05-08 18:15 | -50.90169 | 177.84784 | 35953 ft | 556 kts | 106° |
| 2026-05-08 18:16 | -51.01933 | 178.30208 | 35967 ft | 556 kts | 105° |
| 2026-05-08 18:16 | -51.13496 | 178.75764 | 35993 ft | 556 kts | 105° |
| 2026-05-08 18:17 | -51.24901 | 179.21637 | 35994 ft | 556 kts | 105° |
| 2026-05-08 18:17 | -51.36126 | 179.67738 | 36012 ft | 558 kts | 105° |
| 2026-05-08 18:18 | -51.47203 | -179.85802 | 36030 ft | 559 kts | 104° |
| 2026-05-08 18:18 | -51.58066 | -179.39240 | 36052 ft | 559 kts | 104° |
| 2026-05-08 18:19 | -51.68794 | -178.92231 | 36054 ft | 559 kts | 104° |
| 2026-05-08 18:19 | -51.79329 | -178.45018 | 36067 ft | 558 kts | 104° |
| 2026-05-08 18:20 | -51.89685 | -177.97534 | 36086 ft | 560 kts | 103° |
| 2026-05-08 18:20 | -51.99875 | -177.49708 | 36090 ft | 560 kts | 104° |
| 2026-05-08 18:21 | -52.09867 | -177.01690 | 36112 ft | 561 kts | 104° |
| 2026-05-08 18:21 | -52.19653 | -176.53493 | 36105 ft | 560 kts | 104° |
| 2026-05-08 18:22 | -52.29172 | -176.05447 | 36152 ft | 560 kts | 103° |
| 2026-05-08 18:22 | -52.38553 | -175.56896 | 36202 ft | 559 kts | 103° |
| 2026-05-08 18:23 | -52.47676 | -175.08444 | 36202 ft | 558 kts | 103° |
| 2026-05-08 18:23 | -52.56626 | -174.59658 | 36220 ft | 556 kts | 103° |
| 2026-05-08 18:24 | -52.65335 | -174.10889 | 36246 ft | 558 kts | 102° |
| 2026-05-08 18:24 | -52.73870 | -173.61781 | 36264 ft | 556 kts | 102° |
| 2026-05-08 18:25 | -52.82189 | -173.12543 | 36298 ft | 554 kts | 102° |
| 2026-05-08 18:25 | -52.90302 | -172.63130 | 36319 ft | 554 kts | 102° |
| 2026-05-08 18:26 | -52.98111 | -172.14155 | 36332 ft | 551 kts | 102° |
| 2026-05-08 18:26 | -53.05756 | -171.64752 | 36353 ft | 553 kts | 101° |
| 2026-05-08 18:27 | -53.11961 | -171.23515 | 36375 ft | 552 kts | 101° |
| 2026-05-08 18:27 | -53.20421 | -170.65487 | 36399 ft | 551 kts | 101° |
| 2026-05-08 18:28 | -53.27436 | -170.15639 | 36420 ft | 551 kts | 101° |
| 2026-05-08 18:28 | -53.34236 | -169.65675 | 36412 ft | 552 kts | 101° |
| 2026-05-08 18:29 | -53.40804 | -169.15734 | 36461 ft | 549 kts | 100° |
| 2026-05-08 18:29 | -53.46103 | -168.74124 | 36481 ft | 549 kts | 99° |
| 2026-05-08 18:30 | -53.52311 | -168.23730 | 36496 ft | 550 kts | 99° |
| 2026-05-08 18:30 | -53.58293 | -167.73265 | 36512 ft | 549 kts | 99° |
| 2026-05-08 18:31 | -53.64043 | -167.22847 | 36538 ft | 549 kts | 99° |
| 2026-05-08 18:31 | -53.69575 | -166.72337 | 36560 ft | 548 kts | 98° |
| 2026-05-08 18:32 | -53.74915 | -166.21488 | 36574 ft | 549 kts | 98° |
| 2026-05-08 18:32 | -53.80035 | -165.70569 | 36568 ft | 548 kts | 98° |
| 2026-05-08 18:33 | -53.84917 | -165.19736 | 36601 ft | 547 kts | 97° |
| 2026-05-08 18:33 | -53.89571 | -164.68958 | 36615 ft | 548 kts | 97° |
| 2026-05-08 18:34 | -53.94030 | -164.17806 | 36631 ft | 547 kts | 97° |
| 2026-05-08 18:34 | -53.98273 | -163.66543 | 36637 ft | 548 kts | 97° |
| 2026-05-08 18:35 | -54.02295 | -163.15199 | 36647 ft | 548 kts | 96° |
| 2026-05-08 18:35 | -54.06098 | -162.63744 | 36667 ft | 548 kts | 96° |
| 2026-05-08 18:36 | -54.09683 | -162.12176 | 36686 ft | 547 kts | 96° |
| 2026-05-08 18:36 | -54.13042 | -161.60579 | 36698 ft | 548 kts | 96° |
| 2026-05-08 18:37 | -54.16169 | -161.09129 | 36704 ft | 549 kts | 96° |
| 2026-05-08 18:37 | -54.19089 | -160.57319 | 36733 ft | 547 kts | 95° |
| 2026-05-08 18:38 | -54.21801 | -160.05205 | 36748 ft | 551 kts | 95° |
| 2026-05-08 18:38 | -54.24282 | -159.53092 | 36748 ft | 550 kts | 95° |
| 2026-05-08 18:39 | -54.26530 | -159.01078 | 36769 ft | 548 kts | 95° |
| 2026-05-08 18:39 | -54.28553 | -158.49072 | 36786 ft | 546 kts | 95° |
| 2026-05-08 18:40 | -54.30334 | -157.97538 | 36796 ft | 549 kts | 94° |
| 2026-05-08 18:40 | -54.31923 | -157.45095 | 36803 ft | 550 kts | 94° |
| 2026-05-08 18:41 | -54.33281 | -156.92642 | 36813 ft | 549 kts | 94° |
| 2026-05-08 18:41 | -54.34414 | -156.40014 | 36823 ft | 553 kts | 93° |
| 2026-05-08 18:42 | -54.35315 | -155.87548 | 36826 ft | 551 kts | 93° |
| 2026-05-08 18:42 | -54.35990 | -155.34916 | 36840 ft | 553 kts | 93° |
| 2026-05-08 18:43 | -54.36434 | -154.82518 | 36845 ft | 553 kts | 92° |
| 2026-05-08 18:43 | -54.36653 | -154.29413 | 36845 ft | 554 kts | 92° |
| 2026-05-08 18:44 | -54.36639 | -153.76974 | 36848 ft | 553 kts | 92° |
| 2026-05-08 18:44 | -54.36396 | -153.24189 | 36850 ft | 552 kts | 92° |
| 2026-05-08 18:45 | -54.35922 | -152.71300 | 36842 ft | 554 kts | 92° |
| 2026-05-08 18:45 | -54.35217 | -152.18484 | 36844 ft | 554 kts | 92° |
| 2026-05-08 18:46 | -54.34279 | -151.65505 | 36837 ft | 557 kts | 92° |
| 2026-05-08 18:46 | -54.33104 | -151.12388 | 36833 ft | 557 kts | 91° |
| 2026-05-08 18:47 | -54.31699 | -150.59407 | 36831 ft | 559 kts | 91° |
| 2026-05-08 18:47 | -54.30053 | -150.06198 | 36826 ft | 558 kts | 91° |
| 2026-05-08 18:48 | -54.28178 | -149.53186 | 36842 ft | 558 kts | 91° |
| 2026-05-08 18:48 | -54.26076 | -149.00337 | 36814 ft | 560 kts | 91° |
| 2026-05-08 18:49 | -54.23729 | -148.47235 | 36808 ft | 559 kts | 91° |
| 2026-05-08 18:49 | -54.21145 | -147.94116 | 36795 ft | 560 kts | 91° |
| 2026-05-08 18:50 | -54.18329 | -147.41097 | 36797 ft | 559 kts | 91° |
| 2026-05-08 18:50 | -54.15293 | -146.88347 | 36785 ft | 558 kts | 91° |
| 2026-05-08 18:51 | -54.12031 | -146.35740 | 36775 ft | 557 kts | 90° |
| 2026-05-08 18:51 | -54.08531 | -145.83095 | 36769 ft | 559 kts | 90° |
| 2026-05-08 18:52 | -54.04800 | -145.30523 | 36760 ft | 560 kts | 90° |
| 2026-05-08 18:52 | -54.00852 | -144.78193 | 36749 ft | 560 kts | 89° |
| 2026-05-08 18:53 | -53.96647 | -144.25615 | 36740 ft | 562 kts | 89° |
| 2026-05-08 18:53 | -53.92212 | -143.73104 | 36730 ft | 562 kts | 89° |
| 2026-05-08 18:54 | -53.87553 | -143.20781 | 36721 ft | 564 kts | 88° |
| 2026-05-08 18:54 | -53.82634 | -142.68220 | 36716 ft | 563 kts | 88° |
| 2026-05-08 18:55 | -53.79408 | -142.36275 | 37598 ft | 519 kts | 87° |
| 2026-05-08 18:55 | -53.78827 | -142.30247 | 37591 ft | 521 kts | 88° |
| 2026-05-08 18:55 | -53.78268 | -142.24145 | 37321 ft | 529 kts | 88° |
| 2026-05-08 18:56 | -53.77691 | -142.17950 | 37023 ft | 539 kts | 88° |
| 2026-05-08 18:56 | -53.77086 | -142.11656 | 36759 ft | 548 kts | 87° |
| 2026-05-08 18:56 | -53.76313 | -142.03917 | 36699 ft | 554 kts | 87° |
| 2026-05-08 18:56 | -53.73629 | -141.77959 | 36696 ft | 565 kts | 86° |
| 2026-05-08 18:57 | -53.70915 | -141.52186 | 36691 ft | 563 kts | 86° |
| 2026-05-08 18:57 | -53.65249 | -140.99947 | 37104 ft | 558 kts | 85° |
| 2026-05-08 18:57 | -53.62420 | -140.74612 | 37766 ft | 554 kts | 85° |
| 2026-05-08 18:58 | -53.60030 | -140.53650 | 38294 ft | 550 kts | 84° |
| 2026-05-08 18:58 | -53.58566 | -140.40977 | 38419 ft | 550 kts | 84° |
| 2026-05-08 18:59 | -53.57095 | -140.28342 | 38508 ft | 551 kts | 84° |
| 2026-05-08 18:59 | -53.55605 | -140.15680 | 38627 ft | 551 kts | 84° |
| 2026-05-08 19:00 | -53.54115 | -140.03126 | 38679 ft | 554 kts | 83° |
| 2026-05-08 19:00 | -53.52585 | -139.90358 | 38674 ft | 557 kts | 83° |
| 2026-05-08 19:01 | -53.51039 | -139.77602 | 38668 ft | 558 kts | 83° |
| 2026-05-08 19:01 | -53.49477 | -139.64845 | 38667 ft | 557 kts | 83° |
| 2026-05-08 19:02 | -53.47915 | -139.52190 | 38665 ft | 557 kts | 83° |
| 2026-05-08 19:02 | -53.46342 | -139.39567 | 38661 ft | 556 kts | 83° |
| 2026-05-08 19:03 | -53.44749 | -139.26895 | 38664 ft | 555 kts | 83° |
| 2026-05-08 19:03 | -53.43141 | -139.14217 | 38664 ft | 556 kts | 83° |
| 2026-05-08 19:04 | -53.41519 | -139.01548 | 38680 ft | 556 kts | 82° |
| 2026-05-08 19:04 | -31.41968 | -89.96876 | 36984 ft | 549 kts | 99° |
| 2026-05-08 19:04 | -31.43066 | -89.92704 | 37182 ft | 518 kts | 112° |
| 2026-05-08 19:04 | -31.44537 | -89.88940 | 37461 ft | 502 kts | 111° |
| 2026-05-08 19:05 | -31.45813 | -89.85170 | 37737 ft | 494 kts | 108° |
| 2026-05-08 19:05 | -31.46937 | -89.81396 | 38009 ft | 489 kts | 105° |
| 2026-05-08 19:05 | -31.47865 | -89.77584 | 38289 ft | 484 kts | 102° |
| 2026-05-08 19:05 | -31.48608 | -89.73748 | 38581 ft | 483 kts | 99° |
| 2026-05-08 19:06 | -31.49225 | -89.69890 | 38869 ft | 482 kts | 97° |
| 2026-05-08 19:06 | -31.49770 | -89.66014 | 39130 ft | 480 kts | 96° |
| 2026-05-08 19:06 | -31.50280 | -89.62152 | 39365 ft | 480 kts | 96° |
| 2026-05-08 19:07 | -31.51296 | -89.54383 | 39563 ft | 484 kts | 96° |
| 2026-05-08 19:07 | -31.51817 | -89.50471 | 39731 ft | 484 kts | 97° |
| 2026-05-08 19:07 | -31.52333 | -89.46636 | 39906 ft | 484 kts | 97° |
| 2026-05-08 19:07 | -31.52862 | -89.42729 | 40039 ft | 485 kts | 97° |
| 2026-05-08 19:08 | -31.53392 | -89.38823 | 40207 ft | 485 kts | 97° |
| 2026-05-08 19:08 | -31.53922 | -89.34912 | 40382 ft | 485 kts | 97° |
| 2026-05-08 19:08 | -31.54449 | -89.31017 | 40566 ft | 484 kts | 97° |
| 2026-05-08 19:08 | -31.54974 | -89.27123 | 40726 ft | 484 kts | 97° |
| 2026-05-08 19:09 | -31.55499 | -89.23223 | 40888 ft | 484 kts | 97° |
| 2026-05-08 19:09 | -31.56022 | -89.19320 | 41006 ft | 484 kts | 97° |
| 2026-05-08 19:09 | -31.56540 | -89.15444 | 41143 ft | 484 kts | 97° |
| 2026-05-08 19:09 | -31.57059 | -89.11556 | 41283 ft | 484 kts | 97° |
| 2026-05-08 19:10 | -31.57579 | -89.07647 | 41419 ft | 484 kts | 97° |
| 2026-05-08 19:10 | -31.58613 | -88.99844 | 41440 ft | 484 kts | 97° |
| 2026-05-08 19:11 | -31.59644 | -88.92034 | 41444 ft | 484 kts | 97° |
| 2026-05-08 19:11 | -31.60663 | -88.84274 | 41434 ft | 483 kts | 97° |
| 2026-05-08 19:12 | -31.61682 | -88.76477 | 41438 ft | 484 kts | 97° |
| 2026-05-08 19:12 | -31.62693 | -88.68698 | 41443 ft | 485 kts | 97° |
| 2026-05-08 19:13 | -31.63707 | -88.60869 | 41443 ft | 485 kts | 97° |
| 2026-05-08 19:13 | -31.64715 | -88.53041 | 41442 ft | 485 kts | 97° |
| 2026-05-08 19:14 | -31.65716 | -88.45225 | 41444 ft | 485 kts | 97° |
| 2026-05-08 19:14 | -31.66715 | -88.37394 | 41446 ft | 485 kts | 97° |
| 2026-05-08 19:15 | -31.67711 | -88.29560 | 41446 ft | 485 kts | 97° |
| 2026-05-08 19:15 | -31.68663 | -88.22008 | 41448 ft | 485 kts | 97° |
| 2026-05-08 19:16 | -31.69661 | -88.14053 | 41446 ft | 486 kts | 97° |
| 2026-05-08 19:16 | -31.70643 | -88.06206 | 41445 ft | 486 kts | 97° |
| 2026-05-08 19:17 | -31.71624 | -87.98359 | 41449 ft | 486 kts | 97° |
| 2026-05-08 19:17 | -31.72596 | -87.90472 | 41446 ft | 486 kts | 97° |
| 2026-05-08 19:18 | -31.73561 | -87.82608 | 41455 ft | 487 kts | 97° |
| 2026-05-08 19:18 | -31.74362 | -87.76066 | 41457 ft | 487 kts | 97° |
| 2026-05-08 19:19 | -31.75322 | -87.68185 | 41449 ft | 487 kts | 97° |
| 2026-05-08 19:19 | -31.76276 | -87.60315 | 41447 ft | 487 kts | 97° |
| 2026-05-08 19:20 | -31.77223 | -87.52464 | 41449 ft | 487 kts | 97° |
| 2026-05-08 19:20 | -31.78172 | -87.44561 | 41451 ft | 488 kts | 97° |
| 2026-05-08 19:21 | -31.79108 | -87.36664 | 41453 ft | 488 kts | 97° |
| 2026-05-08 19:21 | -31.80047 | -87.28761 | 41451 ft | 489 kts | 97° |
| 2026-05-08 19:22 | -31.80984 | -87.20831 | 41446 ft | 490 kts | 97° |
| 2026-05-08 19:22 | -31.81917 | -87.12907 | 41450 ft | 490 kts | 97° |
| 2026-05-08 19:23 | -31.82845 | -87.04967 | 41441 ft | 489 kts | 97° |
| 2026-05-08 19:23 | -31.83766 | -86.97028 | 41440 ft | 489 kts | 97° |
| 2026-05-08 19:24 | -31.84680 | -86.89139 | 41446 ft | 490 kts | 97° |
| 2026-05-08 19:24 | -31.85588 | -86.81197 | 41451 ft | 490 kts | 97° |
| 2026-05-08 19:25 | -31.86496 | -86.73244 | 41441 ft | 490 kts | 97° |
| 2026-05-08 19:25 | -31.87398 | -86.65300 | 41445 ft | 489 kts | 97° |
| 2026-05-08 19:26 | -31.88295 | -86.57361 | 41439 ft | 489 kts | 97° |
| 2026-05-08 19:26 | -31.89191 | -86.49409 | 41442 ft | 490 kts | 98° |
| 2026-05-08 19:27 | -31.90077 | -86.41459 | 41434 ft | 490 kts | 97° |
| 2026-05-08 19:27 | -31.90959 | -86.33496 | 41433 ft | 491 kts | 97° |
| 2026-05-08 19:28 | -31.91836 | -86.25531 | 41441 ft | 491 kts | 97° |
| 2026-05-08 19:28 | -31.92703 | -86.17624 | 41435 ft | 490 kts | 97° |
| 2026-05-08 19:29 | -31.93573 | -86.09646 | 41430 ft | 491 kts | 98° |
| 2026-05-08 19:29 | -31.94438 | -86.01668 | 41434 ft | 491 kts | 98° |
| 2026-05-08 19:30 | -31.95298 | -85.93688 | 41434 ft | 492 kts | 98° |
| 2026-05-08 19:30 | -31.96153 | -85.85699 | 41431 ft | 492 kts | 97° |
| 2026-05-08 19:31 | -31.97004 | -85.77706 | 41435 ft | 492 kts | 97° |
| 2026-05-08 19:31 | -31.97848 | -85.69720 | 41423 ft | 492 kts | 98° |
| 2026-05-08 19:32 | -31.98689 | -85.61726 | 41434 ft | 491 kts | 97° |
| 2026-05-08 19:32 | -31.99525 | -85.53732 | 41431 ft | 491 kts | 97° |
| 2026-05-08 19:33 | -32.00348 | -85.45800 | 41429 ft | 491 kts | 97° |
| 2026-05-08 19:33 | -32.01171 | -85.37811 | 41423 ft | 491 kts | 98° |
| 2026-05-08 19:34 | -32.01994 | -85.29816 | 41433 ft | 491 kts | 98° |
| 2026-05-08 19:34 | -32.02808 | -85.21825 | 41424 ft | 491 kts | 98° |
| 2026-05-08 19:35 | -32.03616 | -85.13843 | 41419 ft | 491 kts | 98° |
| 2026-05-08 19:35 | -32.04420 | -85.05848 | 41423 ft | 491 kts | 98° |
| 2026-05-08 19:36 | -32.05226 | -84.97863 | 41420 ft | 490 kts | 98° |
| 2026-05-08 19:36 | -32.06015 | -84.89933 | 41418 ft | 490 kts | 98° |
| 2026-05-08 19:37 | -32.06800 | -84.81947 | 41416 ft | 490 kts | 98° |
| 2026-05-08 19:37 | -32.07584 | -84.73959 | 41424 ft | 490 kts | 98° |
| 2026-05-08 19:38 | -32.08362 | -84.65989 | 41419 ft | 490 kts | 98° |
| 2026-05-08 19:38 | -32.09142 | -84.58004 | 41418 ft | 489 kts | 98° |
| 2026-05-08 19:39 | -32.09913 | -84.50023 | 41412 ft | 489 kts | 98° |
| 2026-05-08 19:39 | -32.10673 | -84.42044 | 41417 ft | 490 kts | 98° |
| 2026-05-08 19:40 | -32.11431 | -84.34054 | 41414 ft | 490 kts | 98° |
| 2026-05-08 19:40 | -32.12179 | -84.26122 | 41416 ft | 489 kts | 98° |
| 2026-05-08 19:41 | -32.12927 | -84.18151 | 41404 ft | 489 kts | 98° |
| 2026-05-08 19:41 | -32.13671 | -84.10170 | 41403 ft | 489 kts | 98° |
| 2026-05-08 19:42 | -32.14409 | -84.02187 | 41403 ft | 489 kts | 98° |
| 2026-05-08 19:42 | -32.15142 | -83.94211 | 41408 ft | 489 kts | 98° |
| 2026-05-08 19:43 | -32.15871 | -83.86224 | 41401 ft | 489 kts | 98° |
| 2026-05-08 19:43 | -32.16594 | -83.78244 | 41400 ft | 489 kts | 98° |
| 2026-05-08 19:44 | -32.17313 | -83.70255 | 41398 ft | 489 kts | 98° |
| 2026-05-08 19:44 | -32.18027 | -83.62255 | 41398 ft | 489 kts | 98° |
| 2026-05-08 19:45 | -32.18735 | -83.54272 | 41405 ft | 489 kts | 98° |
| 2026-05-08 19:45 | -32.19434 | -83.46333 | 41400 ft | 490 kts | 98° |
| 2026-05-08 19:46 | -32.20134 | -83.38326 | 41394 ft | 490 kts | 98° |
| 2026-05-08 19:46 | -32.21174 | -83.26313 | 41392 ft | 490 kts | 98° |
| 2026-05-08 19:47 | -32.21861 | -83.18307 | 41395 ft | 489 kts | 98° |
| 2026-05-08 19:47 | -32.22538 | -83.10353 | 41387 ft | 490 kts | 99° |
| 2026-05-08 19:48 | -32.23216 | -83.02331 | 41388 ft | 491 kts | 99° |
| 2026-05-08 19:48 | -32.23889 | -82.94305 | 41387 ft | 491 kts | 99° |
| 2026-05-08 19:49 | -32.24557 | -82.86271 | 41386 ft | 491 kts | 98° |
| 2026-05-08 19:49 | -32.25216 | -82.78298 | 41384 ft | 491 kts | 98° |
| 2026-05-08 19:50 | -32.25874 | -82.70265 | 41381 ft | 491 kts | 99° |
| 2026-05-08 19:50 | -32.26529 | -82.62208 | 41379 ft | 491 kts | 99° |
| 2026-05-08 19:51 | -32.27177 | -82.54170 | 41372 ft | 491 kts | 98° |
| 2026-05-08 19:51 | -32.27820 | -82.46127 | 41375 ft | 492 kts | 98° |
| 2026-05-08 19:52 | -32.28458 | -82.38083 | 41380 ft | 492 kts | 99° |
| 2026-05-08 19:52 | -32.29092 | -82.30036 | 41378 ft | 491 kts | 99° |
| 2026-05-08 19:53 | -32.29719 | -82.21996 | 41367 ft | 491 kts | 99° |
| 2026-05-08 19:53 | -32.30338 | -82.14008 | 41362 ft | 491 kts | 98° |
| 2026-05-08 19:54 | -32.30956 | -82.05960 | 41363 ft | 491 kts | 98° |
| 2026-05-08 19:54 | -32.31569 | -81.97901 | 41376 ft | 491 kts | 98° |
| 2026-05-08 19:55 | -32.32177 | -81.89847 | 41370 ft | 491 kts | 98° |
| 2026-05-08 19:55 | -32.32779 | -81.81805 | 41368 ft | 491 kts | 98° |
| 2026-05-08 19:56 | -32.33377 | -81.73745 | 41368 ft | 491 kts | 98° |
| 2026-05-08 19:56 | -32.33969 | -81.65697 | 41354 ft | 491 kts | 98° |
| 2026-05-08 19:57 | -32.34556 | -81.57648 | 41357 ft | 491 kts | 98° |
| 2026-05-08 19:57 | -32.35137 | -81.49605 | 41350 ft | 491 kts | 98° |
| 2026-05-08 19:58 | -32.35713 | -81.41558 | 41350 ft | 491 kts | 98° |
| 2026-05-08 19:58 | -32.36284 | -81.33521 | 41347 ft | 491 kts | 98° |
| 2026-05-08 19:59 | -32.36850 | -81.25474 | 41348 ft | 491 kts | 98° |
| 2026-05-08 19:59 | -32.37410 | -81.17428 | 41345 ft | 490 kts | 97° |
| 2026-05-08 20:00 | -32.37962 | -81.09432 | 41349 ft | 490 kts | 97° |
| 2026-05-08 20:00 | -32.38512 | -81.01393 | 41343 ft | 490 kts | 97° |
| 2026-05-08 20:01 | -32.39057 | -80.93352 | 41340 ft | 490 kts | 97° |
| 2026-05-08 20:01 | -32.39597 | -80.85315 | 41336 ft | 490 kts | 97° |
| 2026-05-08 20:02 | -32.40131 | -80.77270 | 41336 ft | 490 kts | 97° |
| 2026-05-08 20:02 | -32.40660 | -80.69234 | 41331 ft | 490 kts | 97° |
| 2026-05-08 20:03 | -32.41184 | -80.61204 | 41333 ft | 490 kts | 97° |
| 2026-05-08 20:03 | -32.41703 | -80.53166 | 41341 ft | 490 kts | 97° |
| 2026-05-08 20:04 | -32.42130 | -80.46488 | 41328 ft | 490 kts | 98° |
| 2026-05-08 20:04 | -32.42640 | -80.38436 | 41327 ft | 490 kts | 97° |
| 2026-05-08 20:05 | -32.43227 | -80.29067 | 41320 ft | 490 kts | 97° |
| 2026-05-08 20:05 | -32.43727 | -80.21008 | 41320 ft | 490 kts | 97° |
| 2026-05-08 20:06 | -32.44138 | -80.14310 | 41324 ft | 490 kts | 98° |
| 2026-05-08 20:06 | -32.44628 | -80.06256 | 41317 ft | 490 kts | 98° |
| 2026-05-08 20:07 | -32.45114 | -79.98196 | 41318 ft | 490 kts | 98° |
| 2026-05-08 20:07 | -32.45660 | -79.90146 | 41315 ft | 490 kts | 98° |
| 2026-05-08 20:08 | -32.46233 | -79.82088 | 41314 ft | 490 kts | 98° |
| 2026-05-08 20:08 | -32.46792 | -79.74048 | 41315 ft | 490 kts | 98° |
| 2026-05-08 20:09 | -32.47336 | -79.66043 | 41306 ft | 490 kts | 98° |
| 2026-05-08 20:09 | -32.47875 | -79.57988 | 41306 ft | 491 kts | 98° |
| 2026-05-08 20:10 | -32.48408 | -79.49923 | 41306 ft | 491 kts | 98° |
| 2026-05-08 20:10 | -32.48937 | -79.41866 | 41321 ft | 491 kts | 98° |
| 2026-05-08 20:11 | -32.49461 | -79.33804 | 41305 ft | 491 kts | 98° |
| 2026-05-08 20:11 | -32.49981 | -79.25727 | 41301 ft | 491 kts | 98° |
| 2026-05-08 20:12 | -32.50494 | -79.17667 | 41300 ft | 491 kts | 98° |
| 2026-05-08 20:12 | -32.51000 | -79.09641 | 41295 ft | 491 kts | 98° |
| 2026-05-08 20:13 | -32.51507 | -79.01521 | 41297 ft | 491 kts | 99° |
| 2026-05-08 20:13 | -32.52006 | -78.93444 | 41292 ft | 491 kts | 99° |
| 2026-05-08 20:14 | -32.52497 | -78.85411 | 41291 ft | 491 kts | 99° |
| 2026-05-08 20:14 | -32.52985 | -78.77338 | 41287 ft | 491 kts | 98° |
| 2026-05-08 20:15 | -32.53469 | -78.69245 | 41288 ft | 491 kts | 98° |
| 2026-05-08 20:15 | -32.53947 | -78.61166 | 41286 ft | 491 kts | 99° |
| 2026-05-08 20:16 | -32.54420 | -78.53095 | 41282 ft | 492 kts | 99° |
| 2026-05-08 20:16 | -32.54889 | -78.45002 | 41288 ft | 492 kts | 99° |
| 2026-05-08 20:17 | -32.55348 | -78.36971 | 41282 ft | 492 kts | 99° |
| 2026-05-08 20:17 | -32.55806 | -78.28878 | 41286 ft | 492 kts | 98° |
| 2026-05-08 20:18 | -32.56259 | -78.20792 | 41278 ft | 492 kts | 98° |
| 2026-05-08 20:18 | -32.56706 | -78.12702 | 41267 ft | 492 kts | 98° |
| 2026-05-08 20:19 | -32.57149 | -78.04613 | 41277 ft | 492 kts | 98° |
| 2026-05-08 20:19 | -32.57586 | -77.96521 | 41275 ft | 492 kts | 98° |
| 2026-05-08 20:20 | -32.58018 | -77.88420 | 41268 ft | 493 kts | 99° |
| 2026-05-08 20:20 | -32.58447 | -77.80308 | 41265 ft | 493 kts | 99° |
| 2026-05-08 20:21 | -32.58870 | -77.72184 | 41266 ft | 493 kts | 99° |
| 2026-05-08 20:21 | -32.59285 | -77.64107 | 41263 ft | 493 kts | 99° |
| 2026-05-08 20:22 | -32.59697 | -77.55981 | 41271 ft | 493 kts | 99° |
| 2026-05-08 20:22 | -32.60105 | -77.47860 | 41259 ft | 494 kts | 99° |
| 2026-05-08 20:23 | -32.60508 | -77.39716 | 41257 ft | 494 kts | 99° |
| 2026-05-08 20:23 | -32.60905 | -77.31574 | 41253 ft | 494 kts | 99° |
| 2026-05-08 20:24 | -32.61298 | -77.23427 | 41257 ft | 494 kts | 99° |
| 2026-05-08 20:24 | -32.61686 | -77.15275 | 41250 ft | 495 kts | 99° |
| 2026-05-08 20:25 | -32.62068 | -77.07127 | 41252 ft | 495 kts | 99° |
| 2026-05-08 20:25 | -32.62445 | -76.98962 | 41252 ft | 495 kts | 99° |
| 2026-05-08 20:26 | -32.62818 | -76.90789 | 41246 ft | 496 kts | 99° |
| 2026-05-08 20:26 | -32.63185 | -76.82614 | 41252 ft | 496 kts | 99° |
| 2026-05-08 20:27 | -32.63548 | -76.74428 | 41239 ft | 497 kts | 99° |
| 2026-05-08 20:27 | -32.63906 | -76.66229 | 41239 ft | 497 kts | 99° |
| 2026-05-08 20:28 | -32.64255 | -76.58095 | 41237 ft | 497 kts | 99° |
| 2026-05-08 20:28 | -32.64602 | -76.49897 | 41258 ft | 497 kts | 99° |
| 2026-05-08 20:29 | -32.64944 | -76.41693 | 41237 ft | 498 kts | 99° |
| 2026-05-08 20:29 | -32.65282 | -76.33471 | 41217 ft | 499 kts | 99° |
| 2026-05-08 20:30 | -32.65615 | -76.25229 | 41230 ft | 499 kts | 99° |
| 2026-05-08 20:30 | -32.65941 | -76.17004 | 41218 ft | 499 kts | 99° |
| 2026-05-08 20:31 | -32.66263 | -76.08755 | 41223 ft | 500 kts | 99° |
| 2026-05-08 20:31 | -32.66581 | -76.00500 | 41218 ft | 502 kts | 99° |
| 2026-05-08 20:32 | -32.66894 | -75.92214 | 41213 ft | 502 kts | 99° |
| 2026-05-08 20:32 | -32.67198 | -75.83982 | 41217 ft | 502 kts | 99° |
| 2026-05-08 20:33 | -32.67500 | -75.75696 | 41222 ft | 502 kts | 99° |
| 2026-05-08 20:33 | -32.67797 | -75.67417 | 41209 ft | 503 kts | 99° |
| 2026-05-08 20:34 | -32.68089 | -75.59102 | 41207 ft | 504 kts | 99° |
| 2026-05-08 20:35 | -32.68516 | -75.46630 | 41201 ft | 504 kts | 99° |
| 2026-05-08 20:35 | -32.68792 | -75.38371 | 41207 ft | 504 kts | 100° |
| 2026-05-08 20:36 | -32.69065 | -75.30049 | 41198 ft | 505 kts | 100° |
| 2026-05-08 20:36 | -32.69333 | -75.21707 | 41197 ft | 505 kts | 100° |
| 2026-05-08 20:37 | -32.69595 | -75.13389 | 41197 ft | 505 kts | 99° |
| 2026-05-08 20:37 | -32.69852 | -75.05032 | 41216 ft | 505 kts | 100° |
| 2026-05-08 20:38 | -32.70102 | -74.96693 | 41191 ft | 506 kts | 100° |
| 2026-05-08 20:38 | -32.70305 | -74.88322 | 41192 ft | 507 kts | 99° |
| 2026-05-08 20:39 | -32.70487 | -74.80007 | 41192 ft | 507 kts | 99° |
| 2026-05-08 20:39 | -32.70672 | -74.71578 | 41190 ft | 507 kts | 99° |
| 2026-05-08 20:40 | -32.70854 | -74.63269 | 41184 ft | 507 kts | 99° |
| 2026-05-08 20:40 | -32.71033 | -74.54895 | 41184 ft | 507 kts | 99° |
| 2026-05-08 20:41 | -32.71206 | -74.46525 | 41179 ft | 507 kts | 99° |
| 2026-05-08 20:41 | -32.71374 | -74.38158 | 41188 ft | 507 kts | 99° |
| 2026-05-08 20:42 | -32.71537 | -74.29763 | 41180 ft | 508 kts | 99° |
| 2026-05-08 20:42 | -32.71695 | -74.21364 | 41177 ft | 509 kts | 99° |
| 2026-05-08 20:43 | -32.71846 | -74.12944 | 41171 ft | 509 kts | 99° |
| 2026-05-08 20:43 | -32.71992 | -74.04532 | 41170 ft | 509 kts | 99° |
| 2026-05-08 20:44 | -32.72131 | -73.96176 | 41180 ft | 510 kts | 100° |
| 2026-05-08 20:44 | -32.72267 | -73.87748 | 41161 ft | 511 kts | 99° |
| 2026-05-08 20:45 | -32.72397 | -73.79309 | 41168 ft | 511 kts | 99° |
| 2026-05-08 20:45 | -32.72520 | -73.70858 | 41160 ft | 511 kts | 99° |
| 2026-05-08 20:46 | -32.72638 | -73.62407 | 41172 ft | 512 kts | 100° |
| 2026-05-08 20:46 | -32.72752 | -73.53940 | 41155 ft | 513 kts | 100° |
| 2026-05-08 20:47 | -32.72860 | -73.45446 | 41155 ft | 514 kts | 99° |
| 2026-05-08 20:47 | -32.72961 | -73.36971 | 41150 ft | 514 kts | 99° |
| 2026-05-08 20:48 | -32.73041 | -73.29917 | 41187 ft | 514 kts | 99° |
| 2026-05-08 20:48 | -32.72781 | -73.19942 | 41140 ft | 524 kts | 93° |
| 2026-05-08 20:49 | -32.71951 | -73.11471 | 41140 ft | 527 kts | 91° |
| 2026-05-08 20:49 | -32.70984 | -73.02834 | 41138 ft | 527 kts | 91° |
| 2026-05-08 20:50 | -32.70027 | -72.94261 | 41166 ft | 527 kts | 91° |
| 2026-05-08 20:50 | -32.69079 | -72.85614 | 41127 ft | 529 kts | 91° |
| 2026-05-08 20:51 | -32.68286 | -72.78359 | 41125 ft | 529 kts | 91° |
| 2026-05-08 20:51 | -32.67336 | -72.69730 | 41127 ft | 530 kts | 91° |
| 2026-05-08 20:52 | -32.66375 | -72.61061 | 41125 ft | 530 kts | 91° |
| 2026-05-08 20:52 | -32.65407 | -72.52381 | 41117 ft | 531 kts | 91° |
| 2026-05-08 20:53 | -32.64431 | -72.43678 | 41116 ft | 532 kts | 91° |
| 2026-05-08 20:53 | -32.63445 | -72.34956 | 41124 ft | 533 kts | 91° |
| 2026-05-08 20:54 | -32.62455 | -72.26256 | 41124 ft | 533 kts | 91° |
| 2026-05-08 20:54 | -32.61457 | -72.17539 | 41119 ft | 534 kts | 91° |
| 2026-05-08 20:55 | -32.60452 | -72.08806 | 41103 ft | 534 kts | 91° |
| 2026-05-08 20:55 | -32.59441 | -72.00082 | 41107 ft | 535 kts | 91° |
| 2026-05-08 20:56 | -32.58420 | -71.91330 | 41104 ft | 535 kts | 91° |
| 2026-05-08 20:56 | -32.57395 | -71.82594 | 41095 ft | 535 kts | 91° |
| 2026-05-08 20:57 | -32.56371 | -71.73920 | 41094 ft | 535 kts | 91° |
| 2026-05-08 20:57 | -32.55334 | -71.65179 | 41088 ft | 535 kts | 91° |
| 2026-05-08 20:58 | -32.54290 | -71.56441 | 41095 ft | 535 kts | 91° |
| 2026-05-08 20:58 | -32.53238 | -71.47691 | 41086 ft | 536 kts | 92° |
| 2026-05-08 20:59 | -32.52181 | -71.38942 | 41086 ft | 536 kts | 92° |
| 2026-05-08 20:59 | -32.51116 | -71.30176 | 41086 ft | 537 kts | 92° |
| 2026-05-08 21:00 | -32.50049 | -71.21466 | 41070 ft | 537 kts | 91° |
| 2026-05-08 21:00 | -32.48972 | -71.12704 | 41077 ft | 537 kts | 91° |
| 2026-05-08 21:01 | -32.47886 | -71.03945 | 41079 ft | 537 kts | 91° |
| 2026-05-08 21:01 | -32.46799 | -70.95213 | 41073 ft | 536 kts | 91° |
| 2026-05-08 21:02 | -32.45704 | -70.86465 | 41130 ft | 537 kts | 91° |
| 2026-05-08 21:02 | -32.44601 | -70.77674 | 41078 ft | 542 kts | 91° |
| 2026-05-08 21:03 | -32.43479 | -70.68806 | 41083 ft | 545 kts | 91° |
| 2026-05-08 21:03 | -32.42345 | -70.59952 | 41095 ft | 544 kts | 91° |
| 2026-05-08 21:04 | -32.41207 | -70.51091 | 41117 ft | 544 kts | 90° |
| 2026-05-08 21:04 | -32.40083 | -70.42233 | 41098 ft | 552 kts | 90° |
| 2026-05-08 21:05 | -32.38913 | -70.33190 | 41088 ft | 556 kts | 90° |
| 2026-05-08 21:05 | -32.37724 | -70.24145 | 41094 ft | 556 kts | 90° |
| 2026-05-08 21:06 | -32.36436 | -70.15114 | 41069 ft | 557 kts | 87° |
| 2026-05-08 21:06 | -32.34945 | -70.06156 | 41014 ft | 555 kts | 87° |
| 2026-05-08 21:07 | -32.33471 | -69.97181 | 41021 ft | 555 kts | 87° |
| 2026-05-08 21:07 | -32.32032 | -69.88231 | 40946 ft | 554 kts | 87° |
| 2026-05-08 21:08 | -32.30589 | -69.79327 | 40877 ft | 553 kts | 86° |
| 2026-05-08 21:08 | -32.29120 | -69.70399 | 40880 ft | 551 kts | 86° |
| 2026-05-08 21:09 | -32.27654 | -69.61482 | 40812 ft | 553 kts | 86° |
| 2026-05-08 21:09 | -32.26181 | -69.52590 | 40811 ft | 550 kts | 86° |
| 2026-05-08 21:10 | -32.24707 | -69.43730 | 40771 ft | 550 kts | 87° |
| 2026-05-08 21:10 | -32.23229 | -69.34866 | 40764 ft | 550 kts | 87° |
| 2026-05-08 21:11 | -32.21755 | -69.26062 | 40764 ft | 550 kts | 87° |
| 2026-05-08 21:11 | -32.20264 | -69.17204 | 40805 ft | 550 kts | 86° |
| 2026-05-08 21:12 | -32.18755 | -69.08377 | 40801 ft | 548 kts | 86° |
| 2026-05-08 21:12 | -32.17256 | -68.99555 | 40808 ft | 547 kts | 86° |
| 2026-05-08 21:13 | -32.15753 | -68.90747 | 40818 ft | 547 kts | 86° |
| 2026-05-08 21:13 | -32.14248 | -68.81932 | 40848 ft | 548 kts | 86° |
| 2026-05-08 21:14 | -32.12729 | -68.73081 | 40830 ft | 551 kts | 86° |
| 2026-05-08 21:14 | -32.11199 | -68.64242 | 40827 ft | 551 kts | 86° |
| 2026-05-08 21:15 | -32.09659 | -68.55389 | 40825 ft | 551 kts | 86° |
| 2026-05-08 21:15 | -32.08112 | -68.46523 | 40836 ft | 553 kts | 86° |
| 2026-05-08 21:16 | -32.06563 | -68.37675 | 40832 ft | 555 kts | 86° |
| 2026-05-08 21:16 | -32.05000 | -68.28736 | 40834 ft | 555 kts | 86° |
| 2026-05-08 21:17 | -32.03515 | -68.19810 | 40838 ft | 554 kts | 86° |
| 2026-05-08 21:17 | -32.02039 | -68.10868 | 40836 ft | 557 kts | 86° |
| 2026-05-08 21:18 | -32.00539 | -68.01893 | 40842 ft | 559 kts | 86° |
| 2026-05-08 21:18 | -31.99030 | -67.92977 | 40833 ft | 559 kts | 86° |
| 2026-05-08 21:19 | -31.97501 | -67.83993 | 40835 ft | 559 kts | 86° |
| 2026-05-08 21:19 | -31.95967 | -67.75015 | 40834 ft | 559 kts | 86° |
| 2026-05-08 21:20 | -31.94428 | -67.66036 | 40841 ft | 559 kts | 86° |
| 2026-05-08 21:20 | -31.92883 | -67.57063 | 40834 ft | 559 kts | 85° |
| 2026-05-08 21:21 | -31.91332 | -67.48098 | 40841 ft | 559 kts | 85° |
| 2026-05-08 21:21 | -31.89776 | -67.39135 | 40845 ft | 559 kts | 85° |
| 2026-05-08 21:22 | -31.88210 | -67.30162 | 40845 ft | 559 kts | 85° |
| 2026-05-08 21:22 | -31.86637 | -67.21187 | 40869 ft | 559 kts | 85° |
| 2026-05-08 21:23 | -31.85071 | -67.12292 | 40849 ft | 559 kts | 84° |
| 2026-05-08 21:23 | -31.83487 | -67.03329 | 40851 ft | 559 kts | 84° |
| 2026-05-08 21:24 | -31.81897 | -66.94374 | 40852 ft | 559 kts | 84° |
| 2026-05-08 21:24 | -31.80299 | -66.85411 | 40860 ft | 559 kts | 83° |
| 2026-05-08 21:25 | -31.78701 | -66.76491 | 40854 ft | 557 kts | 83° |
| 2026-05-08 21:25 | -31.76785 | -66.67650 | 40856 ft | 560 kts | 78° |
| 2026-05-08 21:26 | -31.74506 | -66.58888 | 40862 ft | 560 kts | 77° |
| 2026-05-08 21:26 | -31.72207 | -66.50144 | 40865 ft | 560 kts | 77° |
| 2026-05-08 21:27 | -31.69913 | -66.41464 | 40867 ft | 560 kts | 77° |
| 2026-05-08 21:27 | -31.67582 | -66.32676 | 40872 ft | 560 kts | 77° |
| 2026-05-08 21:28 | -31.65271 | -66.23993 | 40909 ft | 560 kts | 76° |
| 2026-05-08 21:28 | -31.62942 | -66.15268 | 40873 ft | 559 kts | 76° |
| 2026-05-08 21:29 | -31.60614 | -66.06573 | 40882 ft | 559 kts | 76° |
| 2026-05-08 21:29 | -31.58280 | -65.97881 | 40886 ft | 559 kts | 76° |
| 2026-05-08 21:30 | -31.55954 | -65.89245 | 40885 ft | 558 kts | 75° |
| 2026-05-08 21:30 | -31.53613 | -65.80581 | 40884 ft | 557 kts | 75° |
| 2026-05-08 21:31 | -31.51267 | -65.71920 | 40886 ft | 557 kts | 75° |
| 2026-05-08 21:31 | -31.48914 | -65.63264 | 40888 ft | 557 kts | 75° |
| 2026-05-08 21:31 | -31.47740 | -65.58957 | 40687 ft | 552 kts | 75° |
| 2026-05-08 21:32 | -31.46574 | -65.54687 | 39867 ft | 546 kts | 75° |
| 2026-05-08 21:32 | -31.45412 | -65.50432 | 38610 ft | 552 kts | 75° |
| 2026-05-08 21:32 | -31.44231 | -65.46103 | 37447 ft | 562 kts | 76° |
| 2026-05-08 21:32 | -31.43033 | -65.41733 | 37082 ft | 564 kts | 76° |
| 2026-05-08 21:33 | -31.41833 | -65.37360 | 36814 ft | 565 kts | 76° |
| 2026-05-08 21:33 | -31.40631 | -65.32990 | 36580 ft | 565 kts | 76° |
| 2026-05-08 21:33 | -31.39834 | -65.30096 | 36292 ft | 562 kts | 76° |
| 2026-05-08 21:33 | -31.38371 | -65.24259 | 35566 ft | 552 kts | 82° |
| 2026-05-08 21:34 | -31.37887 | -65.19910 | 34919 ft | 541 kts | 94° |
| 2026-05-08 21:34 | -31.38098 | -65.15563 | 34175 ft | 531 kts | 105° |
| 2026-05-08 21:34 | -31.38950 | -65.11412 | 33371 ft | 519 kts | 116° |
| 2026-05-08 21:34 | -31.40356 | -65.07582 | 32493 ft | 507 kts | 126° |
| 2026-05-08 21:35 | -31.42257 | -65.04145 | 31590 ft | 497 kts | 136° |
| 2026-05-08 21:35 | -31.44545 | -65.01190 | 30705 ft | 487 kts | 145° |
| 2026-05-08 21:35 | -31.47156 | -64.98726 | 29800 ft | 477 kts | 154° |
| 2026-05-08 21:35 | -31.50020 | -64.96894 | 28761 ft | 463 kts | 166° |
| 2026-05-08 21:36 | -31.52052 | -64.96218 | 28100 ft | 454 kts | 175° |
| 2026-05-08 21:36 | -31.55151 | -64.96093 | 27257 ft | 440 kts | 191° |
| 2026-05-08 21:36 | -31.58057 | -64.97017 | 26530 ft | 428 kts | 207° |
| 2026-05-08 21:36 | -31.60528 | -64.98884 | 25894 ft | 419 kts | 223° |
| 2026-05-08 21:37 | -31.62386 | -65.01451 | 25444 ft | 410 kts | 235° |
| 2026-05-08 21:37 | -31.63690 | -65.04410 | 24763 ft | 409 kts | 246° |
| 2026-05-08 21:37 | -31.64515 | -65.07587 | 24289 ft | 404 kts | 253° |
| 2026-05-08 21:37 | -31.64877 | -65.10854 | 23737 ft | 403 kts | 263° |
| 2026-05-08 21:38 | -31.64789 | -65.14101 | 23425 ft | 397 kts | 271° |
| 2026-05-08 21:38 | -31.64206 | -65.17256 | 22977 ft | 395 kts | 281° |
| 2026-05-08 21:38 | -31.63220 | -65.20265 | 22408 ft | 395 kts | 287° |
| 2026-05-08 21:38 | -31.61989 | -65.23136 | 21842 ft | 394 kts | 292° |
| 2026-05-08 21:39 | -31.60483 | -65.25836 | 21209 ft | 397 kts | 301° |
| 2026-05-08 21:39 | -31.58567 | -65.28198 | 20587 ft | 404 kts | 313° |
| 2026-05-08 21:39 | -31.56170 | -65.29989 | 19994 ft | 414 kts | 328° |
| 2026-05-08 21:39 | -31.53382 | -65.30971 | 19344 ft | 426 kts | 346° |
| 2026-05-08 21:40 | -31.50397 | -65.30931 | 18898 ft | 432 kts | 6° |
| 2026-05-08 21:40 | -31.47502 | -65.29826 | 18867 ft | 454 kts | 23° |
| 2026-05-08 21:40 | -31.44825 | -65.27707 | 18854 ft | 473 kts | 41° |
| 2026-05-08 21:41 | -31.41089 | -65.21402 | 18473 ft | 474 kts | 59° |
| 2026-05-08 21:41 | -31.39251 | -65.18201 | 18233 ft | 473 kts | 57° |
| 2026-05-08 21:41 | -31.37554 | -65.14975 | 17981 ft | 471 kts | 61° |
| 2026-05-08 21:41 | -31.35979 | -65.11565 | 17712 ft | 468 kts | 65° |
| 2026-05-08 21:42 | -31.34635 | -65.08169 | 17445 ft | 465 kts | 69° |
| 2026-05-08 21:42 | -31.33479 | -65.04648 | 17182 ft | 462 kts | 73° |
| 2026-05-08 21:42 | -31.32558 | -65.01067 | 16920 ft | 458 kts | 78° |
| 2026-05-08 21:42 | -31.31899 | -64.97445 | 16662 ft | 454 kts | 83° |
| 2026-05-08 21:43 | -31.31534 | -64.93789 | 16407 ft | 449 kts | 89° |
| 2026-05-08 21:43 | -31.31474 | -64.90159 | 16154 ft | 446 kts | 94° |
| 2026-05-08 21:43 | -31.31277 | -64.86535 | 15899 ft | 447 kts | 85° |
| 2026-05-08 21:43 | -31.30837 | -64.82933 | 15646 ft | 446 kts | 85° |
| 2026-05-08 21:44 | -31.30622 | -64.79341 | 15391 ft | 440 kts | 94° |
| 2026-05-08 21:44 | -31.30797 | -64.75792 | 15142 ft | 436 kts | 98° |
| 2026-05-08 21:44 | -31.30984 | -64.72295 | 14897 ft | 435 kts | 97° |
| 2026-05-08 21:44 | -31.31103 | -64.68766 | 14661 ft | 434 kts | 95° |
| 2026-05-08 21:45 | -31.31173 | -64.65245 | 14429 ft | 433 kts | 95° |
| 2026-05-08 21:45 | -31.31216 | -64.61718 | 14181 ft | 432 kts | 94° |
| 2026-05-08 21:45 | -31.31245 | -64.58220 | 13937 ft | 430 kts | 94° |
| 2026-05-08 21:45 | -31.31264 | -64.54735 | 13687 ft | 428 kts | 94° |
| 2026-05-08 21:46 | -31.31278 | -64.51280 | 13115 ft | 420 kts | 93° |
| 2026-05-08 21:46 | -31.31289 | -64.47890 | 12453 ft | 414 kts | 93° |
| 2026-05-08 21:46 | -31.31299 | -64.44695 | 11792 ft | 408 kts | 93° |
| 2026-05-08 21:46 | -31.31302 | -64.41429 | 11561 ft | 392 kts | 92° |
| 2026-05-08 21:47 | -31.31304 | -64.38356 | 11432 ft | 374 kts | 93° |
| 2026-05-08 21:47 | -31.31307 | -64.35362 | 11343 ft | 356 kts | 93° |
| 2026-05-08 21:47 | -31.31309 | -64.32570 | 11232 ft | 339 kts | 93° |
| 2026-05-08 21:47 | -31.31311 | -64.29858 | 11085 ft | 326 kts | 93° |
| 2026-05-08 21:48 | -31.31314 | -64.27277 | 10949 ft | 313 kts | 93° |
| 2026-05-08 21:48 | -31.31315 | -64.24780 | 10720 ft | 304 kts | 93° |
| 2026-05-08 21:48 | -31.31318 | -64.22320 | 10380 ft | 300 kts | 92° |
| 2026-05-08 21:48 | -31.31320 | -64.19903 | 10066 ft | 296 kts | 92° |
| 2026-05-08 21:49 | -31.31364 | -64.17517 | 9760 ft | 292 kts | 95° |
| 2026-05-08 21:49 | -31.31451 | -64.15118 | 9532 ft | 299 kts | 95° |
| 2026-05-08 21:49 | -31.31537 | -64.12674 | 9330 ft | 301 kts | 94° |
| 2026-05-08 21:49 | -31.31614 | -64.10240 | 9054 ft | 300 kts | 94° |
| 2026-05-08 21:50 | -31.31688 | -64.07811 | 8609 ft | 298 kts | 94° |
| 2026-05-08 21:50 | -31.31758 | -64.05411 | 8273 ft | 294 kts | 93° |
| 2026-05-08 21:50 | -31.31827 | -64.03024 | 7968 ft | 293 kts | 92° |
| 2026-05-08 21:50 | -31.31919 | -64.00636 | 7651 ft | 292 kts | 96° |
| 2026-05-08 21:51 | -31.32482 | -63.98387 | 7356 ft | 289 kts | 121° |
| 2026-05-08 21:51 | -31.33827 | -63.96701 | 7050 ft | 283 kts | 149° |
| 2026-05-08 21:51 | -31.35642 | -63.95916 | 6753 ft | 278 kts | 175° |
| 2026-05-08 21:51 | -31.37569 | -63.95840 | 6467 ft | 277 kts | 183° |
| 2026-05-08 21:52 | -31.39459 | -63.95875 | 6289 ft | 266 kts | 184° |
| 2026-05-08 21:52 | -31.41223 | -63.96252 | 6097 ft | 252 kts | 204° |
| 2026-05-08 21:52 | -31.42604 | -63.97398 | 5906 ft | 239 kts | 231° |
| 2026-05-08 21:52 | -31.43355 | -63.99033 | 5721 ft | 227 kts | 256° |
| 2026-05-08 21:53 | -31.43528 | -64.00813 | 5613 ft | 215 kts | 271° |
| 2026-05-08 21:53 | -31.43527 | -64.02511 | 5513 ft | 202 kts | 272° |
| 2026-05-08 21:53 | -31.43517 | -64.04106 | 5399 ft | 191 kts | 272° |
| 2026-05-08 21:53 | -31.43513 | -64.05630 | 5247 ft | 183 kts | 272° |
| 2026-05-08 21:54 | -31.43511 | -64.07104 | 4987 ft | 181 kts | 272° |
| 2026-05-08 21:54 | -31.43505 | -64.08581 | 4685 ft | 180 kts | 273° |
| 2026-05-08 21:54 | -31.43502 | -64.10048 | 4539 ft | 180 kts | 272° |
| 2026-05-08 21:54 | -31.43498 | -64.11467 | 4382 ft | 167 kts | 272° |
| 2026-05-08 21:55 | -31.43498 | -64.12792 | 4284 ft | 159 kts | 273° |
| 2026-05-08 21:55 | -31.43498 | -64.14049 | 4134 ft | 151 kts | 273° |
| 2026-05-08 21:55 | -31.43479 | -64.15247 | 3929 ft | 144 kts | 276° |
| 2026-05-08 21:56 | -31.42519 | -64.17146 | 3563 ft | 138 kts | 332° |
| 2026-05-08 21:56 | -31.41692 | -64.17714 | 3408 ft | 139 kts | 335° |
| 2026-05-08 21:56 | -31.40852 | -64.18288 | 3234 ft | 140 kts | 334° |
| 2026-05-08 21:56 | -31.40014 | -64.18868 | 3065 ft | 140 kts | 334° |
| 2026-05-08 21:57 | -31.39176 | -64.19449 | 2877 ft | 140 kts | 334° |
| 2026-05-08 21:57 | -31.38344 | -64.20023 | 2692 ft | 138 kts | 332° |
| 2026-05-08 21:57 | -31.37503 | -64.20537 | 2524 ft | 134 kts | 344° |
| 2026-05-08 21:57 | -31.36602 | -64.20820 | 2374 ft | 134 kts | 356° |
| 2026-05-08 21:58 | -31.35700 | -64.20781 | 2240 ft | 131 kts | 5° |
| 2026-05-08 21:58 | -31.34776 | -64.20814 | 2054 ft | 132 kts | 2° |
| 2026-05-08 21:58 | -31.33838 | -64.20797 | 1913 ft | 135 kts | 358° |
| 2026-05-08 21:58 | -31.32901 | -64.20807 | 1735 ft | 135 kts | 2° |
| 2026-05-08 21:59 | -31.31990 | -64.20825 | 1634 ft | 123 kts | 4° |
| 2026-05-08 21:59 | -31.31230 | -64.20828 | 1624 ft | 90 kts | 358° |
| 2026-05-08 21:59 | -31.30902 | -64.20841 | 1627 ft | 13 kts | 2° |
| 2026-05-08 21:59 | -31.30833 | -64.20825 | 1627 ft | 3 kts | 345° |
| 2026-05-08 22:00 | -31.30831 | -64.20838 | 1618 ft | 1 kts | 277° |
| 2026-05-08 22:00 | -31.30846 | -64.20846 | 1627 ft | 3 kts | 184° |
| 2026-05-08 22:00 | -31.30888 | -64.20839 | 1622 ft | 9 kts | 172° |
| 2026-05-08 22:00 | -31.30969 | -64.20836 | 1623 ft | 13 kts | 180° |
| 2026-05-08 22:01 | -31.31072 | -64.20833 | 1626 ft | 16 kts | 179° |
| 2026-05-08 22:01 | -31.31196 | -64.20831 | 1623 ft | 19 kts | 179° |
| 2026-05-08 22:01 | -31.31332 | -64.20830 | 1626 ft | 14 kts | 179° |
| 2026-05-08 22:01 | -31.31417 | -64.20839 | 1625 ft | 13 kts | 194° |
| 2026-05-08 22:02 | -31.31458 | -64.20871 | 1626 ft | 7 kts | 234° |
| 2026-05-08 22:02 | -31.31464 | -64.20939 | 1622 ft | 10 kts | 276° |
| 2026-05-08 22:02 | -31.31468 | -64.21021 | 1619 ft | 10 kts | 265° |
| 2026-05-08 22:02 | -31.31476 | -64.21102 | 1625 ft | 9 kts | 261° |
| 2026-05-08 22:03 | -31.31483 | -64.21151 | 1623 ft | 3 kts | 261° |
| 2026-05-08 22:03 | -31.31485 | -64.21166 | 1623 ft | 0 kts | 260° |
| 2026-05-08 22:03 | -31.31485 | -64.21168 | 1623 ft | 0 kts | 261° |
| 2026-05-08 22:03 | -31.31486 | -64.21170 | 1623 ft | 1 kts | 261° |
| 2026-05-08 22:04 | -31.31487 | -64.21181 | 1624 ft | 0 kts | 261° |